createdAt,value
2018-05-06T00:00:05.109Z,11.30
2018-05-06T00:02:33.416Z,11.30
2018-05-06T00:05:01.777Z,11.30
2018-05-06T00:07:30.153Z,11.30
2018-05-06T00:09:59.287Z,11.20
2018-05-06T00:12:27.647Z,11.10
2018-05-06T00:14:56.220Z,11.10
2018-05-06T00:17:25.283Z,11.00
2018-05-06T00:19:54.443Z,11.00
2018-05-06T00:22:23.563Z,10.90
2018-05-06T00:24:52.740Z,10.90
2018-05-06T00:27:21.091Z,10.90
2018-05-06T00:29:49.489Z,10.80
2018-05-06T00:32:17.838Z,10.80
2018-05-06T00:34:47.677Z,10.70
2018-05-06T00:37:16.022Z,10.70
2018-05-06T00:39:44.316Z,10.70
2018-05-06T00:42:14.182Z,10.70
2018-05-06T00:44:43.277Z,10.50
2018-05-06T00:47:11.613Z,10.50
2018-05-06T00:49:39.957Z,10.50
2018-05-06T00:52:08.538Z,10.50
2018-05-06T00:54:43.644Z,10.40
2018-05-06T00:57:13.481Z,10.30
2018-05-06T00:59:42.057Z,10.30
2018-05-06T01:02:10.446Z,10.30
2018-05-06T01:04:38.808Z,10.30
2018-05-06T01:07:07.193Z,10.30
2018-05-06T01:09:36.598Z,10.20
2018-05-06T01:12:04.917Z,10.20
2018-05-06T01:14:33.267Z,10.20
2018-05-06T01:17:01.632Z,10.20
2018-05-06T01:19:30.314Z,10.10
2018-05-06T01:21:59.449Z,10.10
2018-05-06T01:24:27.809Z,10.00
2018-05-06T01:26:56.258Z,10.10
2018-05-06T01:29:24.937Z,10.10
2018-05-06T01:31:53.329Z,10.10
2018-05-06T01:34:22.420Z,10.10
2018-05-06T01:36:51.494Z,10.10
2018-05-06T01:39:19.930Z,10.00
2018-05-06T01:41:49.391Z,10.10
2018-05-06T01:44:18.095Z,10.00
2018-05-06T01:46:46.456Z,10.00
2018-05-06T01:49:14.873Z,10.00
2018-05-06T01:51:43.316Z,10.00
2018-05-06T01:54:11.816Z,10.00
2018-05-06T01:56:40.861Z,10.00
2018-05-06T01:59:09.157Z,9.90
2018-05-06T02:01:37.495Z,10.00
2018-05-06T02:04:05.772Z,10.00
2018-05-06T02:06:34.104Z,9.90
2018-05-06T02:09:03.714Z,9.90
2018-05-06T02:11:33.004Z,9.90
2018-05-06T02:14:01.367Z,10.00
2018-05-06T02:16:29.697Z,10.00
2018-05-06T02:18:58.870Z,10.00
2018-05-06T02:21:27.577Z,9.90
2018-05-06T02:23:55.980Z,10.00
2018-05-06T02:26:24.396Z,9.90
2018-05-06T02:28:54.348Z,9.80
2018-05-06T02:31:23.499Z,9.80
2018-05-06T02:33:51.846Z,9.80
2018-05-06T02:38:54.988Z,9.90
2018-05-06T02:41:23.385Z,9.80
2018-05-06T02:43:52.581Z,9.80
2018-05-06T02:46:21.594Z,9.70
2018-05-06T02:48:50.806Z,9.70
2018-05-06T02:51:19.134Z,9.60
2018-05-06T02:53:47.542Z,9.70
2018-05-06T02:56:18.450Z,9.70
2018-05-06T02:58:46.795Z,9.60
2018-05-06T03:01:15.160Z,9.70
2018-05-06T03:03:43.475Z,9.70
2018-05-06T03:06:11.986Z,9.70
2018-05-06T03:08:40.394Z,9.60
2018-05-06T03:11:08.943Z,9.60
2018-05-06T03:13:37.282Z,9.60
2018-05-06T03:16:06.610Z,9.60
2018-05-06T03:18:34.940Z,9.50
2018-05-06T03:21:03.487Z,9.60
2018-05-06T03:23:32.597Z,9.50
2018-05-06T03:26:01.677Z,9.50
2018-05-06T03:28:30.002Z,9.50
2018-05-06T03:30:58.420Z,9.50
2018-05-06T03:33:26.751Z,9.50
2018-05-06T03:35:55.050Z,9.50
2018-05-06T03:38:23.441Z,9.50
2018-05-06T03:40:52.574Z,9.50
2018-05-06T03:43:20.917Z,9.40
2018-05-06T03:45:49.332Z,9.50
2018-05-06T03:48:18.547Z,9.50
2018-05-06T03:50:46.943Z,9.40
2018-05-06T03:53:16.317Z,9.50
2018-05-06T03:55:47.134Z,9.50
2018-05-06T03:58:27.340Z,9.50
2018-05-06T04:00:55.829Z,9.50
2018-05-06T04:03:24.659Z,9.50
2018-05-06T04:05:53.511Z,9.40
2018-05-06T04:08:22.695Z,9.50
2018-05-06T04:10:51.127Z,9.50
2018-05-06T04:13:19.501Z,9.50
2018-05-06T04:15:47.986Z,9.60
2018-05-06T04:18:16.597Z,9.60
2018-05-06T04:20:45.051Z,9.60
2018-05-06T04:23:14.116Z,9.70
2018-05-06T04:25:42.469Z,9.70
2018-05-06T04:28:10.807Z,9.70
2018-05-06T04:30:39.227Z,9.70
2018-05-06T04:33:07.864Z,9.70
2018-05-06T04:35:37.044Z,9.90
2018-05-06T04:38:05.543Z,9.80
2018-05-06T04:40:33.916Z,10.00
2018-05-06T04:43:03.214Z,10.10
2018-05-06T04:45:31.611Z,10.10
2018-05-06T04:48:00.750Z,10.20
2018-05-06T04:50:29.123Z,10.20
2018-05-06T04:52:57.490Z,10.30
2018-05-06T04:55:25.772Z,10.40
2018-05-06T04:57:54.111Z,10.40
2018-05-06T05:00:23.205Z,10.60
2018-05-06T05:02:51.500Z,10.50
2018-05-06T05:05:19.856Z,10.70
2018-05-06T05:07:48.931Z,10.80
2018-05-06T05:10:17.234Z,10.70
2018-05-06T05:12:46.672Z,10.90
2018-05-06T05:15:14.940Z,10.80
2018-05-06T05:17:43.227Z,10.90
2018-05-06T05:20:11.535Z,11.00
2018-05-06T05:22:39.839Z,11.00
2018-05-06T05:25:08.115Z,11.20
2018-05-06T05:27:36.423Z,11.20
2018-05-06T05:30:04.712Z,11.30
2018-05-06T05:32:33.023Z,11.40
2018-05-06T05:35:01.315Z,11.50
2018-05-06T05:37:29.603Z,11.60
2018-05-06T05:39:58.668Z,11.70
2018-05-06T05:42:26.954Z,11.60
2018-05-06T05:44:55.228Z,11.80
2018-05-06T05:47:23.542Z,11.90
2018-05-06T05:49:52.567Z,12.10
2018-05-06T05:52:20.851Z,12.10
2018-05-06T05:54:49.134Z,12.20
2018-05-06T05:57:17.438Z,12.30
2018-05-06T05:59:45.807Z,12.50
2018-05-06T06:02:14.083Z,12.60
2018-05-06T06:04:42.431Z,12.60
2018-05-06T06:07:10.760Z,12.70
2018-05-06T06:09:39.100Z,12.90
2018-05-06T06:12:07.409Z,13.00
2018-05-06T06:14:35.659Z,13.10
2018-05-06T06:17:03.978Z,13.10
2018-05-06T06:19:33.511Z,13.40
2018-05-06T06:22:01.841Z,13.40
2018-05-06T06:24:30.139Z,13.60
2018-05-06T06:26:59.171Z,13.70
2018-05-06T06:29:27.468Z,13.70
2018-05-06T06:31:55.787Z,13.80
2018-05-06T06:34:24.071Z,14.00
2018-05-06T06:36:52.360Z,14.10
2018-05-06T06:39:20.637Z,14.20
2018-05-06T06:41:48.966Z,14.30
2018-05-06T06:44:18.068Z,14.50
2018-05-06T06:46:46.366Z,14.40
2018-05-06T06:49:14.667Z,14.60
2018-05-06T06:51:42.949Z,14.60
2018-05-06T06:54:11.254Z,14.80
2018-05-06T06:56:39.548Z,14.90
2018-05-06T06:59:08.110Z,15.00
2018-05-06T07:01:36.421Z,15.10
2018-05-06T07:04:04.707Z,15.20
2018-05-06T07:06:33.100Z,15.40
2018-05-06T07:09:01.385Z,15.50
2018-05-06T07:11:29.668Z,15.60
2018-05-06T07:13:57.978Z,15.70
2018-05-06T07:16:26.556Z,15.80
2018-05-06T07:18:54.859Z,15.80
2018-05-06T07:21:23.167Z,15.90
2018-05-06T07:23:51.454Z,16.00
2018-05-06T07:26:19.732Z,16.10
2018-05-06T07:28:48.044Z,16.20
2018-05-06T07:31:16.442Z,16.30
2018-05-06T07:33:44.699Z,16.30
2018-05-06T07:36:14.499Z,16.60
2018-05-06T07:38:42.787Z,16.60
2018-05-06T07:41:11.088Z,16.70
2018-05-06T07:43:40.147Z,16.90
2018-05-06T07:46:08.415Z,16.80
2018-05-06T07:48:36.694Z,16.90
2018-05-06T07:51:04.976Z,17.00
2018-05-06T07:53:33.248Z,17.20
2018-05-06T07:56:01.544Z,17.30
2018-05-06T07:58:29.852Z,17.40
2018-05-06T08:00:58.160Z,17.50
2018-05-06T08:03:26.459Z,17.50
2018-05-06T08:05:54.720Z,17.50
2018-05-06T08:08:23.020Z,17.60
2018-05-06T08:10:51.407Z,17.60
2018-05-06T08:13:20.423Z,17.80
2018-05-06T08:15:49.471Z,17.90
2018-05-06T08:18:17.743Z,17.90
2018-05-06T08:20:46.061Z,17.90
2018-05-06T08:23:14.356Z,18.00
2018-05-06T08:25:42.641Z,18.10
2018-05-06T08:28:10.986Z,18.20
2018-05-06T08:30:39.292Z,18.20
2018-05-06T08:33:08.521Z,18.30
2018-05-06T08:35:36.819Z,18.30
2018-05-06T08:38:05.220Z,18.40
2018-05-06T08:40:33.496Z,18.50
2018-05-06T08:43:02.585Z,18.60
2018-05-06T08:45:30.955Z,18.60
2018-05-06T08:47:59.244Z,18.70
2018-05-06T08:50:27.559Z,18.90
2018-05-06T08:52:55.886Z,19.20
2018-05-06T08:55:24.155Z,19.50
2018-05-06T08:57:52.440Z,19.70
2018-05-06T09:00:21.132Z,19.80
2018-05-06T09:02:49.558Z,19.90
2018-05-06T09:05:17.829Z,19.80
2018-05-06T09:07:46.124Z,19.90
2018-05-06T09:10:14.416Z,19.90
2018-05-06T09:12:42.775Z,19.90
2018-05-06T09:15:11.055Z,19.90
2018-05-06T09:17:39.397Z,19.90
2018-05-06T09:20:07.760Z,20.00
2018-05-06T09:22:36.055Z,20.00
2018-05-06T09:25:04.432Z,19.90
2018-05-06T09:27:32.804Z,19.90
2018-05-06T09:30:01.860Z,19.90
2018-05-06T09:32:30.129Z,19.80
2018-05-06T09:34:58.448Z,19.90
2018-05-06T09:37:26.837Z,19.90
2018-05-06T09:39:55.140Z,19.90
2018-05-06T09:42:23.450Z,20.00
2018-05-06T09:44:51.758Z,20.10
2018-05-06T09:47:20.009Z,20.20
2018-05-06T09:49:48.304Z,20.30
2018-05-06T09:52:17.352Z,20.40
2018-05-06T09:54:45.627Z,20.40
2018-05-06T09:57:13.904Z,20.40
2018-05-06T09:59:42.222Z,20.30
2018-05-06T10:02:10.576Z,20.40
2018-05-06T10:04:38.847Z,20.40
2018-05-06T10:07:07.892Z,20.50
2018-05-06T10:09:36.948Z,20.60
2018-05-06T10:12:05.986Z,20.50
2018-05-06T10:14:34.267Z,20.60
2018-05-06T10:17:03.343Z,20.60
2018-05-06T10:19:31.705Z,20.60
2018-05-06T10:21:59.986Z,20.60
2018-05-06T10:24:28.325Z,20.60
2018-05-06T10:26:56.691Z,20.70
2018-05-06T10:29:24.982Z,20.70
2018-05-06T10:31:53.271Z,20.70
2018-05-06T10:34:21.583Z,20.90
2018-05-06T10:36:49.823Z,21.00
2018-05-06T10:39:18.162Z,21.00
2018-05-06T10:41:46.443Z,21.00
2018-05-06T10:44:14.803Z,21.00
2018-05-06T10:46:43.163Z,21.10
2018-05-06T10:49:12.292Z,21.20
2018-05-06T10:51:40.528Z,21.20
2018-05-06T10:54:08.811Z,21.20
2018-05-06T10:56:37.913Z,21.40
2018-05-06T10:59:06.193Z,21.30
2018-05-06T11:01:34.498Z,21.40
2018-05-06T11:04:02.812Z,21.40
2018-05-06T11:06:31.191Z,21.40
2018-05-06T11:08:59.547Z,21.50
2018-05-06T11:11:27.831Z,21.60
2018-05-06T11:13:56.134Z,21.60
2018-05-06T11:16:24.417Z,21.70
2018-05-06T11:18:52.684Z,21.70
2018-05-06T11:21:20.955Z,21.70
2018-05-06T11:23:49.280Z,21.60
2018-05-06T11:26:17.561Z,21.70
2018-05-06T11:28:46.587Z,21.70
2018-05-06T11:31:15.871Z,21.70
2018-05-06T11:33:44.167Z,21.80
2018-05-06T11:36:12.498Z,21.80
2018-05-06T11:38:40.856Z,21.90
2018-05-06T11:41:09.166Z,21.90
2018-05-06T11:43:38.228Z,21.90
2018-05-06T11:46:06.512Z,21.90
2018-05-06T11:48:34.853Z,21.90
2018-05-06T11:51:03.135Z,22.00
2018-05-06T11:53:31.440Z,22.10
2018-05-06T11:55:59.719Z,22.20
2018-05-06T11:58:28.807Z,22.30
2018-05-06T12:00:57.124Z,22.20
2018-05-06T12:03:25.374Z,22.30
2018-05-06T12:05:53.741Z,22.30
2018-05-06T12:08:22.119Z,22.30
2018-05-06T12:10:50.400Z,22.30
2018-05-06T12:13:19.491Z,22.30
2018-05-06T12:15:47.858Z,22.20
2018-05-06T12:18:16.057Z,22.40
2018-05-06T12:20:45.137Z,22.50
2018-05-06T12:23:13.415Z,22.40
2018-05-06T12:25:41.699Z,22.50
2018-05-06T12:28:09.967Z,22.50
2018-05-06T12:30:39.781Z,22.60
2018-05-06T12:33:08.051Z,22.60
2018-05-06T12:35:36.327Z,22.60
2018-05-06T12:38:04.631Z,22.60
2018-05-06T12:40:33.679Z,22.70
2018-05-06T12:43:01.956Z,22.70
2018-05-06T12:45:30.248Z,22.70
2018-05-06T12:47:58.535Z,22.70
2018-05-06T12:50:27.015Z,22.80
2018-05-06T12:52:55.256Z,22.80
2018-05-06T12:55:23.564Z,22.80
2018-05-06T12:57:51.843Z,22.80
2018-05-06T13:00:20.130Z,22.90
2018-05-06T13:02:48.435Z,22.90
2018-05-06T13:05:16.731Z,22.90
2018-05-06T13:07:45.055Z,22.90
2018-05-06T13:10:13.443Z,22.90
2018-05-06T13:12:41.692Z,22.90
2018-05-06T13:15:09.974Z,22.90
2018-05-06T13:17:38.264Z,23.00
2018-05-06T13:20:06.558Z,23.10
2018-05-06T13:22:35.621Z,23.20
2018-05-06T13:25:04.833Z,23.10
2018-05-06T13:27:33.131Z,23.10
2018-05-06T13:30:02.362Z,23.10
2018-05-06T13:32:30.587Z,23.00
2018-05-06T13:34:59.048Z,23.10
2018-05-06T13:37:27.327Z,23.10
2018-05-06T13:42:53.361Z,23.10
2018-05-06T13:45:21.648Z,23.20
2018-05-06T13:47:49.963Z,23.20
2018-05-06T13:50:18.339Z,23.30
2018-05-06T13:52:46.800Z,23.20
2018-05-06T13:55:15.091Z,23.20
2018-05-06T13:57:43.624Z,23.30
2018-05-06T14:00:11.887Z,23.30
2018-05-06T14:02:40.197Z,23.30
2018-05-06T14:05:08.492Z,23.30
2018-05-06T14:07:37.560Z,23.40
2018-05-06T14:10:05.939Z,23.30
2018-05-06T14:12:34.354Z,23.40
2018-05-06T14:15:02.603Z,23.50
2018-05-06T14:17:31.699Z,23.40
2018-05-06T14:20:00.027Z,23.40
2018-05-06T14:22:28.379Z,23.50
2018-05-06T14:24:56.739Z,23.40
2018-05-06T14:27:25.008Z,23.60
2018-05-06T14:29:53.337Z,23.60
2018-05-06T14:32:21.627Z,23.60
2018-05-06T14:34:49.906Z,23.60
2018-05-06T14:37:18.569Z,23.70
2018-05-06T14:39:46.862Z,23.70
2018-05-06T14:42:15.199Z,23.70
2018-05-06T14:44:44.643Z,23.80
2018-05-06T14:47:24.868Z,23.70
2018-05-06T14:49:53.150Z,23.80
2018-05-06T14:52:22.207Z,23.80
2018-05-06T14:54:50.488Z,23.80
2018-05-06T14:57:18.771Z,23.90
2018-05-06T14:59:47.072Z,24.00
2018-05-06T15:02:16.154Z,24.20
2018-05-06T15:04:44.423Z,24.10
2018-05-06T15:07:13.863Z,24.40
2018-05-06T15:09:42.189Z,24.40
2018-05-06T15:12:17.325Z,24.50
2018-05-06T15:14:45.740Z,24.50
2018-05-06T15:17:14.787Z,24.70
2018-05-06T15:19:43.991Z,24.60
2018-05-06T15:22:12.296Z,24.70
2018-05-06T15:24:40.673Z,24.90
2018-05-06T15:27:09.773Z,25.50
2018-05-06T15:29:38.072Z,25.80
2018-05-06T15:32:06.363Z,26.50
2018-05-06T15:34:34.685Z,27.20
2018-05-06T15:37:02.967Z,27.70
2018-05-06T15:39:31.284Z,28.30
2018-05-06T15:42:00.427Z,28.70
2018-05-06T15:44:29.355Z,28.60
2018-05-06T15:46:57.683Z,29.50
2018-05-06T15:49:25.988Z,30.10
2018-05-06T15:51:55.057Z,30.80
2018-05-06T15:54:23.403Z,30.70
2018-05-06T15:56:51.695Z,31.10
2018-05-06T15:59:19.986Z,31.80
2018-05-06T16:02:00.285Z,32.60
2018-05-06T16:04:29.347Z,33.60
2018-05-06T16:06:57.622Z,33.50
2018-05-06T16:09:25.908Z,34.00
2018-05-06T16:11:54.228Z,34.00
2018-05-06T16:14:22.468Z,33.80
2018-05-06T16:16:51.555Z,34.80
2018-05-06T16:19:19.940Z,34.70
2018-05-06T16:21:49.142Z,35.70
2018-05-06T16:24:17.515Z,36.10
2018-05-06T16:26:45.901Z,36.10
2018-05-06T16:29:14.405Z,36.20
2018-05-06T16:31:43.615Z,36.10
2018-05-06T16:34:11.903Z,36.00
2018-05-06T16:36:40.226Z,36.10
2018-05-06T16:39:09.397Z,35.50
2018-05-06T16:41:37.714Z,35.40
2018-05-06T16:44:06.078Z,35.20
2018-05-06T16:46:34.399Z,34.80
2018-05-06T16:49:02.724Z,34.70
2018-05-06T16:51:31.038Z,34.90
2018-05-06T16:53:59.331Z,34.90
2018-05-06T16:56:27.666Z,34.80
2018-05-06T16:58:55.919Z,35.00
2018-05-06T17:01:24.204Z,35.50
2018-05-06T17:03:52.609Z,36.00
2018-05-06T17:06:20.939Z,35.70
2018-05-06T17:08:49.288Z,35.50
2018-05-06T17:11:17.634Z,35.50
2018-05-06T17:13:45.906Z,35.40
2018-05-06T17:16:15.718Z,35.20
2018-05-06T17:18:44.009Z,35.20
2018-05-06T17:21:12.315Z,35.00
2018-05-06T17:23:40.637Z,34.90
2018-05-06T17:26:08.916Z,34.50
2018-05-06T17:28:37.310Z,33.30
2018-05-06T17:31:05.683Z,31.60
2018-05-06T17:33:34.756Z,28.60
2018-05-06T17:36:03.061Z,28.50
2018-05-06T17:38:31.396Z,27.60
2018-05-06T17:40:59.699Z,26.70
2018-05-06T17:43:27.951Z,26.00
2018-05-06T17:45:56.530Z,25.40
2018-05-06T17:48:24.855Z,25.00
2018-05-06T17:50:53.280Z,24.50
2018-05-06T17:53:21.607Z,24.10
2018-05-06T17:55:49.911Z,23.80
2018-05-06T17:58:18.287Z,23.50
2018-05-06T18:00:46.755Z,23.20
2018-05-06T18:03:15.799Z,22.80
2018-05-06T18:05:44.123Z,22.80
2018-05-06T18:08:12.461Z,22.60
2018-05-06T18:10:41.495Z,22.40
2018-05-06T18:13:10.556Z,22.20
2018-05-06T18:15:38.847Z,22.10
2018-05-06T18:18:07.136Z,22.00
2018-05-06T18:20:36.203Z,21.70
2018-05-06T18:23:04.516Z,21.70
2018-05-06T18:25:32.846Z,21.70
2018-05-06T18:28:01.125Z,21.60
2018-05-06T18:30:29.993Z,21.50
2018-05-06T18:32:59.017Z,21.30
2018-05-06T18:35:29.208Z,21.20
2018-05-06T18:37:57.484Z,21.10
2018-05-06T18:40:25.774Z,21.00
2018-05-06T18:42:55.702Z,20.80
2018-05-06T18:45:23.995Z,20.70
2018-05-06T18:47:52.312Z,20.70
2018-05-06T18:50:21.450Z,20.60
2018-05-06T18:52:49.758Z,20.50
2018-05-06T18:55:18.800Z,20.30
2018-05-06T18:57:47.121Z,20.20
2018-05-06T19:00:15.528Z,20.20
2018-05-06T19:02:43.906Z,20.10
2018-05-06T19:05:13.117Z,20.00
2018-05-06T19:07:41.431Z,19.90
2018-05-06T19:10:09.707Z,19.80
2018-05-06T19:12:38.007Z,19.70
2018-05-06T19:15:07.117Z,19.50
2018-05-06T19:17:36.220Z,19.40
2018-05-06T19:20:05.276Z,19.30
2018-05-06T19:22:33.555Z,19.20
2018-05-06T19:25:02.560Z,19.20
2018-05-06T19:27:30.842Z,19.10
2018-05-06T19:29:59.896Z,18.90
2018-05-06T19:32:28.211Z,18.90
2018-05-06T19:34:57.285Z,18.70
2018-05-06T19:37:25.607Z,18.70
2018-05-06T19:39:55.629Z,18.60
2018-05-06T19:42:24.743Z,18.50
2018-05-06T19:44:53.399Z,18.50
2018-05-06T19:47:22.486Z,18.30
2018-05-06T19:49:51.560Z,18.30
2018-05-06T19:52:19.873Z,18.20
2018-05-06T19:54:48.247Z,18.20
2018-05-06T19:57:17.296Z,18.10
2018-05-06T19:59:45.588Z,18.00
2018-05-06T20:02:13.898Z,18.00
2018-05-06T20:04:42.207Z,18.00
2018-05-06T20:07:10.525Z,17.90
2018-05-06T20:09:38.831Z,17.80
2018-05-06T20:12:07.136Z,17.70
2018-05-06T20:14:35.421Z,17.70
2018-05-06T20:17:03.736Z,17.60
2018-05-06T20:19:32.038Z,17.60
2018-05-06T20:22:00.371Z,17.50
2018-05-06T20:24:28.612Z,17.40
2018-05-06T20:26:56.898Z,17.30
2018-05-06T20:29:25.167Z,17.30
2018-05-06T20:31:53.485Z,17.30
2018-05-06T20:34:21.737Z,17.20
2018-05-06T20:36:50.065Z,17.20
2018-05-06T20:39:19.116Z,17.10
2018-05-06T20:41:49.419Z,17.00
2018-05-06T20:44:17.851Z,17.00
2018-05-06T20:46:46.952Z,17.00
2018-05-06T20:49:15.255Z,16.90
2018-05-06T20:51:43.567Z,16.90
2018-05-06T20:54:11.992Z,16.90
2018-05-06T20:56:40.308Z,16.90
2018-05-06T20:59:08.583Z,16.80
2018-05-06T21:01:36.889Z,16.80
2018-05-06T21:04:05.275Z,16.70
2018-05-06T21:06:33.544Z,16.70
2018-05-06T21:09:03.788Z,16.70
2018-05-06T21:11:32.089Z,16.70
2018-05-06T21:14:00.419Z,16.60
2018-05-06T21:16:28.692Z,16.60
2018-05-06T21:18:56.987Z,16.60
2018-05-06T21:21:25.268Z,16.50
2018-05-06T21:23:53.712Z,16.50
2018-05-06T21:26:22.117Z,16.50
2018-05-06T21:28:50.669Z,16.40
2018-05-06T21:31:19.969Z,16.40
2018-05-06T21:33:48.377Z,16.40
2018-05-06T21:36:16.831Z,16.30
2018-05-06T21:38:46.006Z,16.20
2018-05-06T21:41:15.684Z,16.10
2018-05-06T21:43:43.943Z,16.10
2018-05-06T21:46:12.225Z,16.10
2018-05-06T21:48:40.657Z,16.00
2018-05-06T21:51:09.113Z,15.90
2018-05-06T21:53:38.351Z,15.80
2018-05-06T21:56:06.811Z,15.70
2018-05-06T21:58:35.247Z,15.70
2018-05-06T22:01:03.572Z,15.60
2018-05-06T22:03:31.924Z,15.60
2018-05-06T22:06:00.998Z,15.40
2018-05-06T22:08:29.568Z,15.40
2018-05-06T22:10:58.795Z,15.20
2018-05-06T23:28:13.635Z,14.00
2018-05-06T23:30:42.008Z,13.90
2018-05-06T23:33:10.429Z,13.90
2018-05-06T23:35:39.016Z,13.90
2018-05-06T23:38:07.429Z,13.90
2018-05-06T23:40:35.762Z,13.90
2018-05-06T23:43:04.140Z,13.80
2018-05-06T23:45:32.603Z,13.80
2018-05-06T23:48:01.278Z,13.80
2018-05-06T23:50:29.775Z,13.70
2018-05-06T23:52:58.084Z,13.70
2018-05-06T23:55:26.492Z,13.60
2018-05-06T23:57:55.618Z,13.60
